sensor_id;sensor_type;location;lat;lon;timestamp;P1;durP1;ratioP1;P2;durP2;ratioP2
10659;SDS011;5378;53.206;13.316;2023-04-25T00:00:15;11.87;;;2.17;;
10659;SDS011;5378;53.206;13.316;2023-04-25T00:03:03;8.13;;;2.40;;
10659;SDS011;5378;53.206;13.316;2023-04-25T00:05:52;3.97;;;1.57;;
10659;SDS011;5378;53.206;13.316;2023-04-25T00:08:43;3.80;;;1.80;;
10659;SDS011;5378;53.206;13.316;2023-04-25T00:11:30;4.27;;;1.40;;
10659;SDS011;5378;53.206;13.316;2023-04-25T00:14:17;2.87;;;1.70;;
10659;SDS011;5378;53.206;13.316;2023-04-25T00:17:04;4.17;;;1.77;;
10659;SDS011;5378;53.206;13.316;2023-04-25T00:19:51;3.17;;;1.67;;
10659;SDS011;5378;53.206;13.316;2023-04-25T00:22:38;15.13;;;2.57;;
10659;SDS011;5378;53.206;13.316;2023-04-25T00:25:26;5.50;;;1.70;;
10659;SDS011;5378;53.206;13.316;2023-04-25T00:28:14;4.40;;;1.27;;
10659;SDS011;5378;53.206;13.316;2023-04-25T00:31:02;4.23;;;1.60;;
10659;SDS011;5378;53.206;13.316;2023-04-25T00:33:49;4.70;;;1.63;;
10659;SDS011;5378;53.206;13.316;2023-04-25T00:36:36;5.03;;;1.77;;
10659;SDS011;5378;53.206;13.316;2023-04-25T00:39:24;2.30;;;1.67;;
10659;SDS011;5378;53.206;13.316;2023-04-25T00:42:12;5.10;;;1.50;;
10659;SDS011;5378;53.206;13.316;2023-04-25T00:45:00;10.80;;;1.90;;
10659;SDS011;5378;53.206;13.316;2023-04-25T00:47:47;2.70;;;1.40;;
10659;SDS011;5378;53.206;13.316;2023-04-25T00:50:34;3.33;;;1.97;;
10659;SDS011;5378;53.206;13.316;2023-04-25T00:53:23;4.20;;;1.80;;
10659;SDS011;5378;53.206;13.316;2023-04-25T00:56:11;4.50;;;1.40;;
10659;SDS011;5378;53.206;13.316;2023-04-25T00:59:00;3.17;;;1.47;;
10659;SDS011;5378;53.206;13.316;2023-04-25T01:01:48;2.40;;;1.90;;
10659;SDS011;5378;53.206;13.316;2023-04-25T01:04:35;3.37;;;1.53;;
10659;SDS011;5378;53.206;13.316;2023-04-25T01:07:22;2.47;;;1.47;;
10659;SDS011;5378;53.206;13.316;2023-04-25T01:10:10;4.67;;;1.60;;
10659;SDS011;5378;53.206;13.316;2023-04-25T01:12:57;2.03;;;1.50;;
10659;SDS011;5378;53.206;13.316;2023-04-25T01:15:45;2.67;;;1.03;;
10659;SDS011;5378;53.206;13.316;2023-04-25T01:18:32;4.97;;;2.10;;
10659;SDS011;5378;53.206;13.316;2023-04-25T01:21:21;4.40;;;1.67;;
10659;SDS011;5378;53.206;13.316;2023-04-25T01:24:08;10.87;;;1.70;;
10659;SDS011;5378;53.206;13.316;2023-04-25T01:26:56;3.50;;;1.53;;
10659;SDS011;5378;53.206;13.316;2023-04-25T01:29:44;5.53;;;1.67;;
10659;SDS011;5378;53.206;13.316;2023-04-25T01:32:32;2.10;;;1.43;;
10659;SDS011;5378;53.206;13.316;2023-04-25T01:35:24;9.97;;;1.60;;
10659;SDS011;5378;53.206;13.316;2023-04-25T01:38:13;1.97;;;1.67;;
10659;SDS011;5378;53.206;13.316;2023-04-25T01:41:01;4.33;;;1.60;;
10659;SDS011;5378;53.206;13.316;2023-04-25T01:43:48;2.83;;;1.60;;
10659;SDS011;5378;53.206;13.316;2023-04-25T01:46:36;2.63;;;1.73;;
10659;SDS011;5378;53.206;13.316;2023-04-25T01:49:23;6.07;;;2.10;;
10659;SDS011;5378;53.206;13.316;2023-04-25T01:52:10;3.77;;;1.90;;
10659;SDS011;5378;53.206;13.316;2023-04-25T01:54:59;3.00;;;1.50;;
10659;SDS011;5378;53.206;13.316;2023-04-25T01:57:48;8.60;;;1.77;;
10659;SDS011;5378;53.206;13.316;2023-04-25T02:00:38;3.70;;;1.90;;
10659;SDS011;5378;53.206;13.316;2023-04-25T02:03:26;2.73;;;1.90;;
10659;SDS011;5378;53.206;13.316;2023-04-25T02:06:14;3.23;;;1.37;;
10659;SDS011;5378;53.206;13.316;2023-04-25T02:09:04;2.07;;;1.60;;
10659;SDS011;5378;53.206;13.316;2023-04-25T02:11:52;3.43;;;1.50;;
10659;SDS011;5378;53.206;13.316;2023-04-25T02:14:46;2.97;;;1.60;;
10659;SDS011;5378;53.206;13.316;2023-04-25T02:17:55;9.13;;;1.90;;
10659;SDS011;5378;53.206;13.316;2023-04-25T02:20:43;3.73;;;1.50;;
10659;SDS011;5378;53.206;13.316;2023-04-25T02:23:31;3.77;;;2.10;;
10659;SDS011;5378;53.206;13.316;2023-04-25T02:26:18;7.60;;;2.33;;
10659;SDS011;5378;53.206;13.316;2023-04-25T02:29:06;5.43;;;1.83;;
10659;SDS011;5378;53.206;13.316;2023-04-25T02:31:53;16.57;;;2.77;;
10659;SDS011;5378;53.206;13.316;2023-04-25T02:34:40;3.20;;;1.70;;
10659;SDS011;5378;53.206;13.316;2023-04-25T02:37:27;5.60;;;1.70;;
10659;SDS011;5378;53.206;13.316;2023-04-25T02:40:14;5.13;;;1.80;;
10659;SDS011;5378;53.206;13.316;2023-04-25T02:43:01;4.83;;;2.00;;
10659;SDS011;5378;53.206;13.316;2023-04-25T02:45:49;8.47;;;2.13;;
10659;SDS011;5378;53.206;13.316;2023-04-25T02:48:36;9.57;;;1.87;;
10659;SDS011;5378;53.206;13.316;2023-04-25T02:51:23;4.30;;;2.00;;
10659;SDS011;5378;53.206;13.316;2023-04-25T02:54:11;2.70;;;2.10;;
10659;SDS011;5378;53.206;13.316;2023-04-25T02:57:02;8.27;;;2.43;;
10659;SDS011;5378;53.206;13.316;2023-04-25T02:59:54;4.13;;;1.90;;
10659;SDS011;5378;53.206;13.316;2023-04-25T03:02:42;9.97;;;2.17;;
10659;SDS011;5378;53.206;13.316;2023-04-25T03:05:29;2.70;;;1.80;;
10659;SDS011;5378;53.206;13.316;2023-04-25T03:08:17;6.30;;;2.00;;
10659;SDS011;5378;53.206;13.316;2023-04-25T03:11:04;7.23;;;2.00;;
10659;SDS011;5378;53.206;13.316;2023-04-25T03:13:53;3.63;;;1.73;;
10659;SDS011;5378;53.206;13.316;2023-04-25T03:16:40;4.63;;;2.00;;
10659;SDS011;5378;53.206;13.316;2023-04-25T03:19:28;5.60;;;2.10;;
10659;SDS011;5378;53.206;13.316;2023-04-25T03:22:16;7.10;;;2.40;;
10659;SDS011;5378;53.206;13.316;2023-04-25T03:25:03;8.30;;;2.70;;
10659;SDS011;5378;53.206;13.316;2023-04-25T03:27:51;4.30;;;2.23;;
10659;SDS011;5378;53.206;13.316;2023-04-25T03:30:38;8.83;;;2.50;;
10659;SDS011;5378;53.206;13.316;2023-04-25T03:33:25;8.10;;;2.53;;
10659;SDS011;5378;53.206;13.316;2023-04-25T03:36:14;4.10;;;2.10;;
10659;SDS011;5378;53.206;13.316;2023-04-25T03:39:01;8.77;;;2.97;;
10659;SDS011;5378;53.206;13.316;2023-04-25T03:41:49;3.93;;;2.07;;
10659;SDS011;5378;53.206;13.316;2023-04-25T03:44:37;4.63;;;2.20;;
10659;SDS011;5378;53.206;13.316;2023-04-25T03:47:25;6.07;;;2.20;;
10659;SDS011;5378;53.206;13.316;2023-04-25T03:50:13;5.80;;;2.63;;
10659;SDS011;5378;53.206;13.316;2023-04-25T03:53:01;6.93;;;3.40;;
10659;SDS011;5378;53.206;13.316;2023-04-25T03:55:59;6.80;;;2.47;;
10659;SDS011;5378;53.206;13.316;2023-04-25T03:58:49;9.10;;;3.10;;
10659;SDS011;5378;53.206;13.316;2023-04-25T04:01:38;6.83;;;2.43;;
10659;SDS011;5378;53.206;13.316;2023-04-25T04:04:25;12.50;;;3.17;;
10659;SDS011;5378;53.206;13.316;2023-04-25T04:07:12;4.43;;;2.77;;
10659;SDS011;5378;53.206;13.316;2023-04-25T04:10:04;4.80;;;2.60;;
10659;SDS011;5378;53.206;13.316;2023-04-25T04:12:55;5.80;;;2.20;;
10659;SDS011;5378;53.206;13.316;2023-04-25T04:15:42;4.67;;;2.70;;
10659;SDS011;5378;53.206;13.316;2023-04-25T04:18:29;12.30;;;2.50;;
10659;SDS011;5378;53.206;13.316;2023-04-25T04:21:16;4.03;;;2.70;;
10659;SDS011;5378;53.206;13.316;2023-04-25T04:24:03;6.43;;;3.00;;
10659;SDS011;5378;53.206;13.316;2023-04-25T04:27:04;6.13;;;2.97;;
10659;SDS011;5378;53.206;13.316;2023-04-25T04:29:54;4.47;;;2.93;;
10659;SDS011;5378;53.206;13.316;2023-04-25T04:32:49;12.43;;;2.70;;
10659;SDS011;5378;53.206;13.316;2023-04-25T04:35:36;10.13;;;3.87;;
10659;SDS011;5378;53.206;13.316;2023-04-25T04:38:23;7.10;;;3.50;;
10659;SDS011;5378;53.206;13.316;2023-04-25T04:41:13;5.17;;;3.03;;
10659;SDS011;5378;53.206;13.316;2023-04-25T04:44:09;9.10;;;3.60;;
10659;SDS011;5378;53.206;13.316;2023-04-25T04:47:17;13.53;;;4.33;;
10659;SDS011;5378;53.206;13.316;2023-04-25T04:50:15;4.63;;;3.10;;
10659;SDS011;5378;53.206;13.316;2023-04-25T04:53:33;8.43;;;4.00;;
10659;SDS011;5378;53.206;13.316;2023-04-25T04:56:41;3.80;;;2.53;;
10659;SDS011;5378;53.206;13.316;2023-04-25T04:59:48;6.10;;;3.03;;
10659;SDS011;5378;53.206;13.316;2023-04-25T05:02:55;8.83;;;3.60;;
10659;SDS011;5378;53.206;13.316;2023-04-25T05:06:08;5.70;;;3.23;;
10659;SDS011;5378;53.206;13.316;2023-04-25T05:09:26;6.90;;;3.80;;
10659;SDS011;5378;53.206;13.316;2023-04-25T05:12:40;11.83;;;3.40;;
10659;SDS011;5378;53.206;13.316;2023-04-25T05:15:56;9.37;;;3.90;;
10659;SDS011;5378;53.206;13.316;2023-04-25T05:18:52;5.73;;;3.80;;
10659;SDS011;5378;53.206;13.316;2023-04-25T05:21:46;8.93;;;3.87;;
10659;SDS011;5378;53.206;13.316;2023-04-25T05:24:51;5.47;;;3.30;;
10659;SDS011;5378;53.206;13.316;2023-04-25T05:27:51;6.67;;;3.70;;
10659;SDS011;5378;53.206;13.316;2023-04-25T05:31:00;8.70;;;3.43;;
10659;SDS011;5378;53.206;13.316;2023-04-25T05:33:56;5.30;;;3.20;;
10659;SDS011;5378;53.206;13.316;2023-04-25T05:36:52;7.27;;;3.27;;
10659;SDS011;5378;53.206;13.316;2023-04-25T05:39:39;9.27;;;3.00;;
10659;SDS011;5378;53.206;13.316;2023-04-25T05:42:49;9.07;;;3.43;;
10659;SDS011;5378;53.206;13.316;2023-04-25T05:46:10;3.83;;;2.30;;
10659;SDS011;5378;53.206;13.316;2023-04-25T05:49:10;6.77;;;3.07;;
10659;SDS011;5378;53.206;13.316;2023-04-25T05:52:14;5.47;;;2.33;;
10659;SDS011;5378;53.206;13.316;2023-04-25T05:55:06;8.83;;;2.87;;
10659;SDS011;5378;53.206;13.316;2023-04-25T05:57:54;8.37;;;3.27;;
10659;SDS011;5378;53.206;13.316;2023-04-25T06:00:41;8.20;;;3.20;;
10659;SDS011;5378;53.206;13.316;2023-04-25T06:03:29;3.97;;;2.87;;
10659;SDS011;5378;53.206;13.316;2023-04-25T06:06:16;6.90;;;2.33;;
10659;SDS011;5378;53.206;13.316;2023-04-25T06:09:04;4.30;;;2.80;;
10659;SDS011;5378;53.206;13.316;2023-04-25T06:11:51;5.57;;;2.57;;
10659;SDS011;5378;53.206;13.316;2023-04-25T06:14:38;13.03;;;3.13;;
10659;SDS011;5378;53.206;13.316;2023-04-25T06:17:27;9.40;;;2.83;;
10659;SDS011;5378;53.206;13.316;2023-04-25T06:20:15;8.10;;;2.13;;
10659;SDS011;5378;53.206;13.316;2023-04-25T06:23:02;4.30;;;2.43;;
10659;SDS011;5378;53.206;13.316;2023-04-25T06:26:06;8.23;;;3.77;;
10659;SDS011;5378;53.206;13.316;2023-04-25T06:28:56;9.00;;;3.67;;
10659;SDS011;5378;53.206;13.316;2023-04-25T06:31:44;13.87;;;2.87;;
10659;SDS011;5378;53.206;13.316;2023-04-25T06:34:31;19.03;;;2.50;;
10659;SDS011;5378;53.206;13.316;2023-04-25T06:37:19;7.67;;;2.43;;
10659;SDS011;5378;53.206;13.316;2023-04-25T06:40:08;6.23;;;2.10;;
10659;SDS011;5378;53.206;13.316;2023-04-25T06:42:56;12.67;;;2.83;;
10659;SDS011;5378;53.206;13.316;2023-04-25T06:46:09;16.27;;;2.33;;
10659;SDS011;5378;53.206;13.316;2023-04-25T06:49:02;7.20;;;2.67;;
10659;SDS011;5378;53.206;13.316;2023-04-25T06:51:48;6.60;;;2.10;;
10659;SDS011;5378;53.206;13.316;2023-04-25T06:54:37;10.30;;;2.80;;
10659;SDS011;5378;53.206;13.316;2023-04-25T06:57:36;17.73;;;3.70;;
10659;SDS011;5378;53.206;13.316;2023-04-25T07:00:43;8.90;;;3.10;;
10659;SDS011;5378;53.206;13.316;2023-04-25T07:03:31;7.00;;;2.90;;
10659;SDS011;5378;53.206;13.316;2023-04-25T07:06:23;9.03;;;2.57;;
10659;SDS011;5378;53.206;13.316;2023-04-25T07:09:11;5.90;;;2.47;;
10659;SDS011;5378;53.206;13.316;2023-04-25T07:12:02;7.73;;;2.47;;
10659;SDS011;5378;53.206;13.316;2023-04-25T07:14:50;15.30;;;2.40;;
10659;SDS011;5378;53.206;13.316;2023-04-25T07:17:37;9.03;;;2.20;;
10659;SDS011;5378;53.206;13.316;2023-04-25T07:20:24;17.43;;;2.60;;
10659;SDS011;5378;53.206;13.316;2023-04-25T07:23:14;24.87;;;3.47;;
10659;SDS011;5378;53.206;13.316;2023-04-25T07:26:01;14.50;;;3.43;;
10659;SDS011;5378;53.206;13.316;2023-04-25T07:28:49;9.23;;;2.23;;
10659;SDS011;5378;53.206;13.316;2023-04-25T07:31:36;6.97;;;2.03;;
10659;SDS011;5378;53.206;13.316;2023-04-25T07:34:24;8.77;;;2.03;;
10659;SDS011;5378;53.206;13.316;2023-04-25T07:37:12;19.00;;;2.10;;
10659;SDS011;5378;53.206;13.316;2023-04-25T07:40:14;13.60;;;2.53;;
10659;SDS011;5378;53.206;13.316;2023-04-25T07:43:06;12.33;;;2.70;;
10659;SDS011;5378;53.206;13.316;2023-04-25T07:46:04;6.07;;;1.90;;
10659;SDS011;5378;53.206;13.316;2023-04-25T07:48:53;29.23;;;2.30;;
10659;SDS011;5378;53.206;13.316;2023-04-25T07:51:40;9.40;;;2.67;;
10659;SDS011;5378;53.206;13.316;2023-04-25T07:54:31;11.33;;;2.83;;
10659;SDS011;5378;53.206;13.316;2023-04-25T07:57:25;2.43;;;1.67;;
10659;SDS011;5378;53.206;13.316;2023-04-25T08:00:14;13.23;;;1.67;;
10659;SDS011;5378;53.206;13.316;2023-04-25T08:03:10;4.13;;;1.47;;
10659;SDS011;5378;53.206;13.316;2023-04-25T08:05:57;7.03;;;1.90;;
10659;SDS011;5378;53.206;13.316;2023-04-25T08:08:48;11.40;;;2.03;;
10659;SDS011;5378;53.206;13.316;2023-04-25T08:11:38;7.83;;;2.20;;
10659;SDS011;5378;53.206;13.316;2023-04-25T08:14:27;6.27;;;2.30;;
10659;SDS011;5378;53.206;13.316;2023-04-25T08:17:21;3.37;;;2.00;;
10659;SDS011;5378;53.206;13.316;2023-04-25T08:20:10;7.10;;;1.80;;
10659;SDS011;5378;53.206;13.316;2023-04-25T08:22:59;10.90;;;1.97;;
10659;SDS011;5378;53.206;13.316;2023-04-25T08:26:04;10.37;;;3.07;;
10659;SDS011;5378;53.206;13.316;2023-04-25T08:28:55;12.97;;;1.90;;
10659;SDS011;5378;53.206;13.316;2023-04-25T08:31:42;8.30;;;2.00;;
10659;SDS011;5378;53.206;13.316;2023-04-25T08:34:30;4.47;;;1.60;;
10659;SDS011;5378;53.206;13.316;2023-04-25T08:37:22;7.70;;;1.50;;
10659;SDS011;5378;53.206;13.316;2023-04-25T08:40:17;6.23;;;1.80;;
10659;SDS011;5378;53.206;13.316;2023-04-25T08:43:13;8.63;;;1.97;;
10659;SDS011;5378;53.206;13.316;2023-04-25T08:46:01;6.70;;;1.63;;
10659;SDS011;5378;53.206;13.316;2023-04-25T08:48:57;5.63;;;1.70;;
10659;SDS011;5378;53.206;13.316;2023-04-25T08:51:47;14.53;;;2.40;;
10659;SDS011;5378;53.206;13.316;2023-04-25T08:54:42;12.53;;;2.37;;
10659;SDS011;5378;53.206;13.316;2023-04-25T08:57:32;5.90;;;1.80;;
10659;SDS011;5378;53.206;13.316;2023-04-25T09:00:20;4.93;;;1.50;;
10659;SDS011;5378;53.206;13.316;2023-04-25T09:03:08;7.00;;;2.20;;
10659;SDS011;5378;53.206;13.316;2023-04-25T09:05:57;11.27;;;2.00;;
10659;SDS011;5378;53.206;13.316;2023-04-25T09:08:44;12.23;;;2.43;;
10659;SDS011;5378;53.206;13.316;2023-04-25T09:11:33;19.87;;;2.77;;
10659;SDS011;5378;53.206;13.316;2023-04-25T09:14:26;8.70;;;1.90;;
10659;SDS011;5378;53.206;13.316;2023-04-25T09:17:23;11.80;;;2.03;;
10659;SDS011;5378;53.206;13.316;2023-04-25T09:20:13;7.40;;;1.63;;
10659;SDS011;5378;53.206;13.316;2023-04-25T09:23:00;9.47;;;1.90;;
10659;SDS011;5378;53.206;13.316;2023-04-25T09:25:51;4.73;;;1.30;;
10659;SDS011;5378;53.206;13.316;2023-04-25T09:28:40;11.80;;;2.23;;
10659;SDS011;5378;53.206;13.316;2023-04-25T09:31:28;11.00;;;2.10;;
10659;SDS011;5378;53.206;13.316;2023-04-25T09:34:19;7.57;;;2.53;;
10659;SDS011;5378;53.206;13.316;2023-04-25T09:37:13;7.53;;;1.97;;
10659;SDS011;5378;53.206;13.316;2023-04-25T09:40:27;2.10;;;1.20;;
10659;SDS011;5378;53.206;13.316;2023-04-25T09:43:26;6.83;;;1.60;;
10659;SDS011;5378;53.206;13.316;2023-04-25T09:46:16;4.47;;;1.87;;
10659;SDS011;5378;53.206;13.316;2023-04-25T09:49:10;7.70;;;2.00;;
10659;SDS011;5378;53.206;13.316;2023-04-25T09:52:05;5.03;;;1.77;;
10659;SDS011;5378;53.206;13.316;2023-04-25T09:54:59;3.70;;;1.23;;
10659;SDS011;5378;53.206;13.316;2023-04-25T09:57:51;8.07;;;1.57;;
10659;SDS011;5378;53.206;13.316;2023-04-25T10:00:41;4.63;;;2.20;;
10659;SDS011;5378;53.206;13.316;2023-04-25T10:03:42;5.70;;;1.77;;
10659;SDS011;5378;53.206;13.316;2023-04-25T10:06:46;6.47;;;2.27;;
10659;SDS011;5378;53.206;13.316;2023-04-25T10:09:36;6.40;;;1.80;;
10659;SDS011;5378;53.206;13.316;2023-04-25T10:12:25;10.53;;;1.83;;
10659;SDS011;5378;53.206;13.316;2023-04-25T10:15:12;7.97;;;1.40;;
10659;SDS011;5378;53.206;13.316;2023-04-25T10:18:01;5.27;;;1.77;;
10659;SDS011;5378;53.206;13.316;2023-04-25T10:20:50;5.67;;;2.07;;
10659;SDS011;5378;53.206;13.316;2023-04-25T10:23:39;4.60;;;1.77;;
10659;SDS011;5378;53.206;13.316;2023-04-25T10:26:26;14.33;;;1.90;;
10659;SDS011;5378;53.206;13.316;2023-04-25T10:29:21;3.57;;;1.60;;
10659;SDS011;5378;53.206;13.316;2023-04-25T10:32:09;8.57;;;1.90;;
10659;SDS011;5378;53.206;13.316;2023-04-25T10:34:56;6.03;;;1.60;;
10659;SDS011;5378;53.206;13.316;2023-04-25T10:38:02;17.37;;;2.47;;
10659;SDS011;5378;53.206;13.316;2023-04-25T10:41:02;5.87;;;1.50;;
10659;SDS011;5378;53.206;13.316;2023-04-25T10:43:50;10.00;;;1.80;;
10659;SDS011;5378;53.206;13.316;2023-04-25T10:46:46;11.43;;;2.60;;
10659;SDS011;5378;53.206;13.316;2023-04-25T10:49:34;10.53;;;1.87;;
10659;SDS011;5378;53.206;13.316;2023-04-25T10:52:26;4.83;;;1.47;;
10659;SDS011;5378;53.206;13.316;2023-04-25T10:55:16;8.40;;;2.50;;
10659;SDS011;5378;53.206;13.316;2023-04-25T10:58:03;10.60;;;2.67;;
10659;SDS011;5378;53.206;13.316;2023-04-25T11:00:51;14.93;;;2.07;;
10659;SDS011;5378;53.206;13.316;2023-04-25T11:03:42;6.90;;;1.83;;
10659;SDS011;5378;53.206;13.316;2023-04-25T11:06:32;11.97;;;3.17;;
10659;SDS011;5378;53.206;13.316;2023-04-25T11:09:29;10.03;;;1.63;;
10659;SDS011;5378;53.206;13.316;2023-04-25T11:12:17;10.33;;;2.43;;
10659;SDS011;5378;53.206;13.316;2023-04-25T11:15:05;3.83;;;1.87;;
10659;SDS011;5378;53.206;13.316;2023-04-25T11:17:54;14.03;;;2.43;;
10659;SDS011;5378;53.206;13.316;2023-04-25T11:20:42;7.77;;;1.83;;
10659;SDS011;5378;53.206;13.316;2023-04-25T11:23:30;15.17;;;2.23;;
10659;SDS011;5378;53.206;13.316;2023-04-25T11:26:18;8.10;;;2.33;;
10659;SDS011;5378;53.206;13.316;2023-04-25T11:29:07;7.03;;;2.17;;
10659;SDS011;5378;53.206;13.316;2023-04-25T11:31:54;11.30;;;2.07;;
10659;SDS011;5378;53.206;13.316;2023-04-25T11:34:44;6.87;;;1.73;;
10659;SDS011;5378;53.206;13.316;2023-04-25T11:37:31;3.97;;;1.20;;
10659;SDS011;5378;53.206;13.316;2023-04-25T11:40:19;7.83;;;1.90;;
10659;SDS011;5378;53.206;13.316;2023-04-25T11:43:06;10.40;;;1.97;;
10659;SDS011;5378;53.206;13.316;2023-04-25T11:45:54;3.20;;;1.57;;
10659;SDS011;5378;53.206;13.316;2023-04-25T11:48:41;5.57;;;1.90;;
10659;SDS011;5378;53.206;13.316;2023-04-25T11:51:30;2.87;;;1.23;;
10659;SDS011;5378;53.206;13.316;2023-04-25T11:54:24;2.93;;;1.63;;
10659;SDS011;5378;53.206;13.316;2023-04-25T11:57:11;8.23;;;1.77;;
10659;SDS011;5378;53.206;13.316;2023-04-25T12:00:04;6.90;;;2.50;;
10659;SDS011;5378;53.206;13.316;2023-04-25T12:02:58;5.27;;;1.50;;
10659;SDS011;5378;53.206;13.316;2023-04-25T12:05:45;3.50;;;1.57;;
10659;SDS011;5378;53.206;13.316;2023-04-25T12:08:33;7.53;;;1.30;;
10659;SDS011;5378;53.206;13.316;2023-04-25T12:11:20;2.20;;;1.23;;
10659;SDS011;5378;53.206;13.316;2023-04-25T12:14:07;2.53;;;0.80;;
10659;SDS011;5378;53.206;13.316;2023-04-25T12:16:55;5.43;;;1.53;;
10659;SDS011;5378;53.206;13.316;2023-04-25T12:19:46;2.90;;;1.33;;
10659;SDS011;5378;53.206;13.316;2023-04-25T12:22:34;4.57;;;1.23;;
10659;SDS011;5378;53.206;13.316;2023-04-25T12:25:34;3.13;;;1.30;;
10659;SDS011;5378;53.206;13.316;2023-04-25T12:28:23;4.60;;;1.07;;
10659;SDS011;5378;53.206;13.316;2023-04-25T12:31:12;6.73;;;1.37;;
10659;SDS011;5378;53.206;13.316;2023-04-25T12:34:01;2.10;;;0.90;;
10659;SDS011;5378;53.206;13.316;2023-04-25T12:36:50;5.07;;;1.27;;
10659;SDS011;5378;53.206;13.316;2023-04-25T12:39:38;2.80;;;1.17;;
10659;SDS011;5378;53.206;13.316;2023-04-25T12:42:25;6.60;;;1.30;;
10659;SDS011;5378;53.206;13.316;2023-04-25T12:45:12;11.67;;;2.07;;
10659;SDS011;5378;53.206;13.316;2023-04-25T12:47:59;6.27;;;1.67;;
10659;SDS011;5378;53.206;13.316;2023-04-25T12:50:48;2.83;;;1.20;;
10659;SDS011;5378;53.206;13.316;2023-04-25T12:53:38;6.83;;;1.37;;
10659;SDS011;5378;53.206;13.316;2023-04-25T12:56:26;6.80;;;1.17;;
10659;SDS011;5378;53.206;13.316;2023-04-25T12:59:13;4.40;;;0.97;;
10659;SDS011;5378;53.206;13.316;2023-04-25T13:02:00;5.07;;;1.40;;
10659;SDS011;5378;53.206;13.316;2023-04-25T13:04:48;3.50;;;1.47;;
10659;SDS011;5378;53.206;13.316;2023-04-25T13:07:36;8.00;;;1.20;;
10659;SDS011;5378;53.206;13.316;2023-04-25T13:10:25;6.90;;;1.50;;
10659;SDS011;5378;53.206;13.316;2023-04-25T13:13:12;11.00;;;1.17;;
10659;SDS011;5378;53.206;13.316;2023-04-25T13:15:59;4.20;;;1.50;;
10659;SDS011;5378;53.206;13.316;2023-04-25T13:18:46;7.27;;;1.33;;
10659;SDS011;5378;53.206;13.316;2023-04-25T13:21:33;14.43;;;1.93;;
10659;SDS011;5378;53.206;13.316;2023-04-25T13:24:20;6.53;;;1.03;;
10659;SDS011;5378;53.206;13.316;2023-04-25T13:27:08;3.13;;;0.90;;
10659;SDS011;5378;53.206;13.316;2023-04-25T13:29:56;6.77;;;1.50;;
10659;SDS011;5378;53.206;13.316;2023-04-25T13:32:43;3.20;;;1.13;;
10659;SDS011;5378;53.206;13.316;2023-04-25T13:35:30;8.13;;;1.03;;
10659;SDS011;5378;53.206;13.316;2023-04-25T13:38:17;2.70;;;1.13;;
10659;SDS011;5378;53.206;13.316;2023-04-25T13:41:04;4.33;;;1.90;;
10659;SDS011;5378;53.206;13.316;2023-04-25T13:43:53;6.43;;;1.40;;
10659;SDS011;5378;53.206;13.316;2023-04-25T13:46:40;3.80;;;1.23;;
10659;SDS011;5378;53.206;13.316;2023-04-25T13:49:30;5.60;;;1.10;;
10659;SDS011;5378;53.206;13.316;2023-04-25T13:52:17;7.10;;;0.87;;
10659;SDS011;5378;53.206;13.316;2023-04-25T13:55:04;4.37;;;1.30;;
10659;SDS011;5378;53.206;13.316;2023-04-25T13:57:52;3.40;;;1.13;;
10659;SDS011;5378;53.206;13.316;2023-04-25T14:00:41;5.37;;;1.00;;
10659;SDS011;5378;53.206;13.316;2023-04-25T14:03:28;2.83;;;1.90;;
10659;SDS011;5378;53.206;13.316;2023-04-25T14:06:16;2.93;;;1.37;;
10659;SDS011;5378;53.206;13.316;2023-04-25T14:09:08;3.93;;;0.90;;
10659;SDS011;5378;53.206;13.316;2023-04-25T14:11:55;4.00;;;1.60;;
10659;SDS011;5378;53.206;13.316;2023-04-25T14:14:43;2.80;;;0.93;;
10659;SDS011;5378;53.206;13.316;2023-04-25T14:17:31;6.07;;;1.43;;
10659;SDS011;5378;53.206;13.316;2023-04-25T14:20:18;5.53;;;1.30;;
10659;SDS011;5378;53.206;13.316;2023-04-25T14:23:06;12.27;;;1.43;;
10659;SDS011;5378;53.206;13.316;2023-04-25T14:25:54;5.53;;;1.40;;
10659;SDS011;5378;53.206;13.316;2023-04-25T14:28:41;6.47;;;1.40;;
10659;SDS011;5378;53.206;13.316;2023-04-25T14:31:28;2.07;;;0.90;;
10659;SDS011;5378;53.206;13.316;2023-04-25T14:34:16;5.40;;;0.90;;
10659;SDS011;5378;53.206;13.316;2023-04-25T14:37:03;5.00;;;1.20;;
10659;SDS011;5378;53.206;13.316;2023-04-25T14:39:50;5.60;;;1.23;;
10659;SDS011;5378;53.206;13.316;2023-04-25T14:42:37;5.80;;;1.70;;
10659;SDS011;5378;53.206;13.316;2023-04-25T14:45:24;2.20;;;1.20;;
10659;SDS011;5378;53.206;13.316;2023-04-25T14:48:11;6.80;;;1.70;;
10659;SDS011;5378;53.206;13.316;2023-04-25T14:51:00;6.43;;;1.17;;
10659;SDS011;5378;53.206;13.316;2023-04-25T14:53:47;3.73;;;0.97;;
10659;SDS011;5378;53.206;13.316;2023-04-25T14:56:34;2.67;;;1.60;;
10659;SDS011;5378;53.206;13.316;2023-04-25T14:59:21;1.50;;;1.00;;
10659;SDS011;5378;53.206;13.316;2023-04-25T15:02:08;2.50;;;1.47;;
10659;SDS011;5378;53.206;13.316;2023-04-25T15:04:56;3.13;;;1.17;;
10659;SDS011;5378;53.206;13.316;2023-04-25T15:07:44;2.10;;;0.90;;
10659;SDS011;5378;53.206;13.316;2023-04-25T15:10:33;2.20;;;0.73;;
10659;SDS011;5378;53.206;13.316;2023-04-25T15:13:20;1.63;;;0.70;;
10659;SDS011;5378;53.206;13.316;2023-04-25T15:16:07;7.80;;;1.67;;
10659;SDS011;5378;53.206;13.316;2023-04-25T15:18:55;2.00;;;0.70;;
10659;SDS011;5378;53.206;13.316;2023-04-25T15:21:42;1.87;;;0.60;;
10659;SDS011;5378;53.206;13.316;2023-04-25T15:24:30;4.90;;;1.67;;
10659;SDS011;5378;53.206;13.316;2023-04-25T15:27:17;1.27;;;0.77;;
10659;SDS011;5378;53.206;13.316;2023-04-25T15:30:05;4.57;;;1.20;;
10659;SDS011;5378;53.206;13.316;2023-04-25T15:32:53;3.90;;;1.00;;
10659;SDS011;5378;53.206;13.316;2023-04-25T15:35:40;7.27;;;0.77;;
10659;SDS011;5378;53.206;13.316;2023-04-25T15:38:27;2.83;;;1.13;;
10659;SDS011;5378;53.206;13.316;2023-04-25T15:41:15;4.63;;;1.00;;
10659;SDS011;5378;53.206;13.316;2023-04-25T15:44:03;6.83;;;1.33;;
10659;SDS011;5378;53.206;13.316;2023-04-25T15:46:52;2.00;;;1.00;;
10659;SDS011;5378;53.206;13.316;2023-04-25T15:49:39;2.03;;;0.60;;
10659;SDS011;5378;53.206;13.316;2023-04-25T15:52:26;4.50;;;1.00;;
10659;SDS011;5378;53.206;13.316;2023-04-25T15:55:14;6.60;;;1.43;;
10659;SDS011;5378;53.206;13.316;2023-04-25T15:58:03;3.00;;;1.10;;
10659;SDS011;5378;53.206;13.316;2023-04-25T16:00:50;1.63;;;0.80;;
10659;SDS011;5378;53.206;13.316;2023-04-25T16:03:40;1.27;;;0.53;;
10659;SDS011;5378;53.206;13.316;2023-04-25T16:06:27;4.50;;;0.90;;
10659;SDS011;5378;53.206;13.316;2023-04-25T16:09:15;2.73;;;0.90;;
10659;SDS011;5378;53.206;13.316;2023-04-25T16:12:02;3.40;;;1.10;;
10659;SDS011;5378;53.206;13.316;2023-04-25T16:14:51;4.40;;;0.83;;
10659;SDS011;5378;53.206;13.316;2023-04-25T16:17:38;3.33;;;0.80;;
10659;SDS011;5378;53.206;13.316;2023-04-25T16:20:26;1.20;;;0.70;;
10659;SDS011;5378;53.206;13.316;2023-04-25T16:23:12;3.33;;;0.77;;
10659;SDS011;5378;53.206;13.316;2023-04-25T16:26:00;4.30;;;0.80;;
10659;SDS011;5378;53.206;13.316;2023-04-25T16:28:47;2.90;;;1.00;;
10659;SDS011;5378;53.206;13.316;2023-04-25T16:31:35;3.50;;;0.93;;
10659;SDS011;5378;53.206;13.316;2023-04-25T16:34:22;4.30;;;1.10;;
10659;SDS011;5378;53.206;13.316;2023-04-25T16:37:11;2.40;;;0.73;;
10659;SDS011;5378;53.206;13.316;2023-04-25T16:39:58;2.17;;;0.90;;
10659;SDS011;5378;53.206;13.316;2023-04-25T16:42:48;4.23;;;0.90;;
10659;SDS011;5378;53.206;13.316;2023-04-25T16:45:34;4.80;;;0.80;;
10659;SDS011;5378;53.206;13.316;2023-04-25T16:48:23;4.43;;;1.03;;
10659;SDS011;5378;53.206;13.316;2023-04-25T16:51:10;1.60;;;0.90;;
10659;SDS011;5378;53.206;13.316;2023-04-25T16:53:57;2.43;;;1.33;;
10659;SDS011;5378;53.206;13.316;2023-04-25T16:56:44;3.90;;;1.10;;
10659;SDS011;5378;53.206;13.316;2023-04-25T16:59:31;3.53;;;0.70;;
10659;SDS011;5378;53.206;13.316;2023-04-25T17:02:19;2.10;;;0.50;;